createdAt,value
2023-04-09T00:01:38.241Z,78.77
2023-04-09T00:04:43.360Z,85.07
2023-04-09T00:07:46.944Z,81.97
2023-04-09T00:10:50.507Z,76.83
2023-04-09T00:13:54.046Z,77.83
2023-04-09T00:16:57.610Z,66.77
2023-04-09T00:20:02.491Z,72.00
2023-04-09T00:23:06.166Z,74.60
2023-04-09T00:26:09.981Z,69.50
2023-04-09T00:29:13.523Z,71.07
2023-04-09T00:32:17.284Z,75.53
2023-04-09T00:35:22.539Z,69.13
2023-04-09T00:38:26.026Z,67.27
2023-04-09T00:41:29.640Z,67.87
2023-04-09T00:44:33.242Z,65.20
2023-04-09T00:47:37.487Z,71.17
2023-04-09T00:50:43.165Z,73.73
2023-04-09T00:53:47.693Z,71.63
2023-04-09T00:56:51.590Z,68.83
2023-04-09T00:59:55.287Z,67.63
2023-04-09T01:03:01.040Z,71.93
2023-04-09T01:06:16.564Z,75.23
2023-04-09T01:09:28.901Z,69.57
2023-04-09T01:12:40.084Z,71.43
2023-04-09T01:15:53.579Z,73.13
2023-04-09T01:19:08.141Z,69.07
2023-04-09T01:22:57.756Z,72.40
2023-04-09T01:26:08.692Z,66.67
2023-04-09T01:29:18.713Z,67.57
2023-04-09T01:32:24.768Z,76.40
2023-04-09T01:35:30.210Z,75.17
2023-04-09T01:38:36.966Z,71.60
2023-04-09T01:41:42.575Z,70.13
2023-04-09T01:44:48.389Z,76.60
2023-04-09T01:47:52.920Z,67.03
2023-04-09T01:50:57.248Z,70.63
2023-04-09T01:54:01.058Z,70.70
2023-04-09T01:57:04.659Z,68.63
2023-04-09T02:00:13.040Z,61.23
2023-04-09T02:03:23.233Z,63.87
2023-04-09T02:06:38.144Z,63.50
2023-04-09T02:09:44.382Z,66.63
2023-04-09T02:12:52.593Z,65.97
2023-04-09T02:16:00.862Z,68.00
2023-04-09T02:19:04.533Z,68.20
2023-04-09T02:22:08.128Z,67.93
2023-04-09T02:25:11.681Z,64.40
2023-04-09T02:28:15.480Z,62.07
2023-04-09T02:31:20.445Z,64.40
2023-04-09T02:34:24.543Z,59.37
2023-04-09T02:37:28.056Z,67.63
2023-04-09T02:40:31.741Z,64.30
2023-04-09T02:43:35.485Z,61.57
2023-04-09T02:46:41.083Z,59.90
2023-04-09T02:49:44.650Z,62.73
2023-04-09T02:52:48.696Z,64.20
2023-04-09T02:55:52.321Z,59.70
2023-04-09T02:58:55.878Z,48.27
2023-04-09T03:02:00.913Z,50.47
2023-04-09T03:05:04.929Z,51.90
2023-04-09T03:08:08.517Z,44.83
2023-04-09T03:11:12.027Z,41.53
2023-04-09T03:14:15.571Z,44.60
2023-04-09T03:17:20.496Z,40.50
2023-04-09T03:20:24.068Z,37.57
2023-04-09T03:23:27.629Z,33.43
2023-04-09T03:26:36.238Z,34.70
2023-04-09T03:29:39.721Z,38.53
2023-04-09T03:32:44.665Z,34.80
2023-04-09T03:35:48.260Z,35.27
2023-04-09T03:38:52.219Z,40.90
2023-04-09T03:41:57.903Z,55.20
2023-04-09T03:45:01.490Z,56.67
2023-04-09T03:48:06.662Z,53.10
2023-04-09T03:51:13.927Z,49.03
2023-04-09T03:54:17.445Z,48.30
2023-04-09T03:57:21.109Z,37.97
2023-04-09T04:00:24.635Z,37.00
2023-04-09T04:03:29.963Z,32.47
2023-04-09T04:06:36.046Z,35.17
2023-04-09T04:09:39.524Z,29.03
2023-04-09T04:12:42.986Z,36.97
2023-04-09T04:15:46.525Z,35.20
2023-04-09T04:18:51.765Z,30.17
2023-04-09T04:21:55.705Z,31.27
2023-04-09T04:24:59.412Z,30.30
2023-04-09T04:28:02.901Z,33.70
2023-04-09T04:31:10.944Z,31.90
2023-04-09T04:34:15.907Z,35.07
2023-04-09T04:37:19.555Z,38.07
2023-04-09T04:40:23.386Z,40.87
2023-04-09T04:43:26.826Z,43.33
2023-04-09T04:46:30.426Z,41.83
2023-04-09T04:49:35.271Z,37.33
2023-04-09T04:52:40.493Z,39.43
2023-04-09T04:55:44.135Z,45.73
2023-04-09T04:58:50.917Z,48.90
2023-04-09T05:01:54.650Z,47.83
2023-04-09T05:04:59.614Z,51.07
2023-04-09T05:08:03.122Z,52.40
2023-04-09T05:11:06.841Z,48.67
2023-04-09T05:14:10.450Z,49.37
2023-04-09T05:17:14.036Z,45.93
2023-04-09T05:20:18.921Z,55.37
2023-04-09T05:23:22.722Z,55.43
2023-04-09T05:26:27.157Z,53.50
2023-04-09T05:29:30.793Z,50.27
2023-04-09T05:32:34.392Z,55.40
2023-04-09T05:35:41.777Z,54.67
2023-04-09T05:38:45.973Z,54.30
2023-04-09T05:41:50.124Z,53.07
2023-04-09T05:44:53.746Z,54.23
2023-04-09T05:47:57.592Z,60.17
2023-04-09T05:51:02.558Z,58.87
2023-04-09T05:54:06.154Z,67.30
2023-04-09T05:57:09.880Z,58.47
2023-04-09T06:00:15.208Z,55.93
2023-04-09T06:03:18.887Z,60.80
2023-04-09T06:06:23.973Z,60.13
2023-04-09T06:09:27.966Z,59.20
2023-04-09T06:12:31.628Z,54.23
2023-04-09T06:15:35.184Z,46.93
2023-04-09T06:18:39.105Z,54.57
2023-04-09T06:21:44.061Z,51.47
2023-04-09T06:24:47.792Z,50.60
2023-04-09T06:27:51.621Z,50.27
2023-04-09T06:30:55.560Z,49.43
2023-04-09T06:33:59.037Z,46.70
2023-04-09T06:37:04.095Z,43.67
2023-04-09T06:40:09.403Z,39.30
2023-04-09T06:43:13.165Z,36.23
2023-04-09T06:46:20.152Z,34.43
2023-04-09T06:49:24.148Z,35.60
2023-04-09T06:52:29.114Z,35.73
2023-04-09T06:55:32.667Z,31.10
2023-04-09T06:58:36.745Z,32.90
2023-04-09T07:01:40.965Z,29.93
2023-04-09T07:04:44.673Z,28.77
2023-04-09T07:07:49.765Z,24.70
2023-04-09T07:10:53.834Z,26.03
2023-04-09T07:13:57.502Z,24.63
2023-04-09T07:17:01.008Z,24.20
2023-04-09T07:20:05.094Z,22.57
2023-04-09T07:23:16.665Z,28.13
2023-04-09T07:26:20.490Z,25.73
2023-04-09T07:29:24.329Z,23.43
2023-04-09T07:32:29.218Z,23.87
2023-04-09T07:35:34.781Z,22.30
2023-04-09T07:38:39.828Z,23.03
2023-04-09T07:41:43.764Z,25.00
2023-04-09T07:44:48.598Z,24.73
2023-04-09T07:47:52.608Z,24.47
2023-04-09T07:50:56.350Z,24.97
2023-04-09T07:54:01.326Z,22.47
2023-04-09T07:57:05.097Z,23.53
2023-04-09T08:00:10.479Z,22.83
2023-04-09T08:03:14.389Z,25.53
2023-04-09T08:06:18.349Z,22.47
2023-04-09T08:09:23.422Z,24.47
2023-04-09T08:12:27.180Z,27.30
2023-04-09T08:15:30.787Z,23.97
2023-04-09T08:18:34.258Z,25.73
2023-04-09T08:21:40.472Z,26.43
2023-04-09T08:24:45.596Z,28.70
2023-04-09T08:27:49.185Z,25.60
2023-04-09T08:30:52.733Z,23.30
2023-04-09T08:33:56.514Z,23.73
2023-04-09T08:37:00.451Z,25.03
2023-04-09T08:40:06.213Z,25.87
2023-04-09T08:43:15.770Z,20.80
2023-04-09T08:46:20.585Z,24.13
2023-04-09T08:49:24.385Z,24.33
2023-04-09T08:52:34.867Z,22.33
2023-04-09T08:55:39.772Z,22.30
2023-04-09T08:58:45.995Z,21.00
2023-04-09T09:01:54.326Z,22.63
2023-04-09T09:05:00.979Z,22.97
2023-04-09T09:08:04.643Z,21.57
2023-04-09T09:11:09.585Z,19.77
2023-04-09T09:14:15.610Z,23.50
2023-04-09T09:17:20.432Z,22.53
2023-04-09T09:20:25.661Z,19.10
2023-04-09T09:23:37.543Z,22.20
2023-04-09T09:26:43.763Z,20.27
2023-04-09T09:29:47.377Z,20.20
2023-04-09T09:32:54.966Z,21.17
2023-04-09T09:35:58.716Z,21.20
2023-04-09T09:39:09.903Z,19.17
2023-04-09T09:42:14.780Z,24.67
2023-04-09T09:45:38.421Z,22.93
2023-04-09T09:48:43.482Z,19.53
2023-04-09T09:51:47.081Z,23.77
2023-04-09T09:54:54.205Z,20.23
2023-04-09T09:58:03.668Z,19.63
2023-04-09T10:01:12.011Z,23.87
2023-04-09T10:04:17.602Z,23.27
2023-04-09T10:07:24.094Z,21.20
2023-04-09T10:10:28.942Z,21.83
2023-04-09T10:13:38.896Z,22.93
2023-04-09T10:16:43.636Z,18.80
2023-04-09T10:20:07.533Z,19.97
2023-04-09T10:23:22.455Z,20.10
2023-04-09T10:26:30.897Z,19.83
2023-04-09T10:29:35.997Z,19.40
2023-04-09T10:32:40.036Z,15.93
2023-04-09T10:35:44.323Z,20.17
2023-04-09T10:38:48.799Z,17.73
2023-04-09T10:41:54.723Z,19.17
2023-04-09T10:48:26.124Z,20.63
2023-04-09T10:51:29.961Z,19.50
2023-04-09T10:54:46.298Z,20.90
2023-04-09T10:57:50.091Z,20.53
2023-04-09T11:00:57.043Z,23.77
2023-04-09T11:04:17.667Z,18.87
2023-04-09T11:07:24.869Z,20.90
2023-04-09T11:10:28.500Z,17.87
2023-04-09T11:13:34.326Z,18.80
2023-04-09T11:16:39.545Z,19.50
2023-04-09T11:19:43.337Z,16.70
2023-04-09T11:22:47.112Z,19.43
2023-04-09T11:25:52.055Z,18.03
2023-04-09T11:28:59.186Z,17.07
2023-04-09T11:32:05.315Z,17.67
2023-04-09T11:35:14.347Z,19.43
2023-04-09T11:38:18.020Z,18.23
2023-04-09T11:41:34.340Z,16.10
2023-04-09T11:44:37.902Z,23.13
2023-04-09T11:47:44.992Z,19.40
2023-04-09T11:50:49.250Z,16.17
2023-04-09T11:53:52.858Z,19.87
2023-04-09T11:56:57.469Z,16.33
2023-04-09T12:00:03.104Z,17.87
2023-04-09T12:03:11.970Z,18.07
2023-04-09T12:06:15.812Z,13.93
2023-04-09T12:09:19.384Z,15.10
2023-04-09T12:12:25.798Z,12.37
2023-04-09T12:15:34.550Z,15.60
2023-04-09T12:18:40.082Z,18.10
2023-04-09T12:21:48.165Z,13.17
2023-04-09T12:24:51.814Z,17.50
2023-04-09T12:27:56.955Z,21.07
2023-04-09T12:31:00.751Z,17.30
2023-04-09T12:34:07.196Z,44.57
2023-04-09T12:37:10.754Z,10.97
2023-04-09T12:40:14.904Z,11.37
2023-04-09T12:43:18.461Z,12.73
2023-04-09T12:46:22.319Z,12.80
2023-04-09T12:49:27.317Z,12.43
2023-04-09T12:52:30.886Z,11.33
2023-04-09T12:55:34.695Z,11.17
2023-04-09T12:58:38.638Z,13.80
2023-04-09T13:01:43.588Z,13.17
2023-04-09T13:04:48.733Z,15.37
2023-04-09T13:07:52.678Z,12.77
2023-04-09T13:10:56.482Z,11.73
2023-04-09T13:14:00.204Z,12.63
2023-04-09T13:17:03.947Z,12.53
2023-04-09T13:20:10.716Z,12.63
2023-04-09T13:23:14.442Z,12.27
2023-04-09T13:26:18.077Z,11.13
2023-04-09T13:29:22.078Z,11.97
2023-04-09T13:32:27.359Z,11.20
2023-04-09T13:35:32.528Z,12.10
2023-04-09T13:38:36.414Z,10.37
2023-04-09T13:41:40.547Z,13.03
2023-04-09T13:44:46.251Z,11.97
2023-04-09T13:47:50.515Z,12.83
2023-04-09T13:50:55.525Z,12.47
2023-04-09T13:53:59.169Z,10.70
2023-04-09T13:57:03.579Z,12.27
2023-04-09T14:00:09.424Z,12.93
2023-04-09T14:03:14.364Z,12.43
2023-04-09T14:06:19.694Z,11.67
2023-04-09T14:09:23.245Z,11.47
2023-04-09T14:12:26.756Z,10.43
2023-04-09T14:15:30.636Z,12.87
2023-04-09T14:18:34.270Z,12.70
2023-04-09T14:21:40.579Z,11.37
2023-04-09T14:24:44.332Z,11.63
2023-04-09T14:27:47.827Z,11.77
2023-04-09T14:30:51.559Z,12.90
2023-04-09T14:33:55.056Z,12.30
2023-04-09T14:37:00.061Z,10.77
2023-04-09T14:40:03.629Z,11.70
2023-04-09T14:43:07.185Z,12.83
2023-04-09T14:46:12.061Z,12.43
2023-04-09T14:49:15.736Z,14.07
2023-04-09T14:52:20.777Z,12.00
2023-04-09T14:55:25.831Z,13.07
2023-04-09T14:58:29.458Z,15.07
2023-04-09T15:01:33.341Z,12.10
2023-04-09T15:04:37.121Z,13.60
2023-04-09T15:07:42.131Z,10.77
2023-04-09T15:10:45.705Z,14.23
2023-04-09T15:13:49.699Z,13.37
2023-04-09T15:16:55.896Z,13.63
2023-04-09T15:20:00.611Z,11.70
2023-04-09T15:23:05.571Z,10.40
2023-04-09T15:26:09.203Z,12.23
2023-04-09T15:29:12.805Z,14.30
2023-04-09T15:32:16.460Z,13.70
2023-04-09T15:35:25.092Z,11.77
2023-04-09T15:38:30.137Z,10.67
2023-04-09T15:41:33.893Z,12.90
2023-04-09T15:44:39.049Z,11.63
2023-04-09T15:47:42.751Z,14.10
2023-04-09T15:50:46.755Z,13.27
2023-04-09T15:53:51.721Z,12.70
2023-04-09T15:56:55.376Z,12.20
2023-04-09T15:59:58.953Z,13.80
2023-04-09T16:03:02.579Z,14.53
2023-04-09T16:06:07.488Z,12.17
2023-04-09T16:09:12.822Z,10.73
2023-04-09T16:12:16.347Z,12.50
2023-04-09T16:15:20.256Z,13.37
2023-04-09T16:18:24.401Z,14.10
2023-04-09T16:21:29.091Z,14.80
2023-04-09T16:24:34.036Z,18.60
2023-04-09T16:27:37.623Z,21.07
2023-04-09T16:30:41.449Z,21.97
2023-04-09T16:33:44.983Z,22.93
2023-04-09T16:36:50.664Z,25.37
2023-04-09T16:39:56.627Z,26.13
2023-04-09T16:43:00.492Z,25.10
2023-04-09T16:46:06.523Z,27.03
2023-04-09T16:49:10.144Z,27.50
2023-04-09T16:52:13.730Z,22.73
2023-04-09T16:55:18.803Z,22.83
2023-04-09T16:58:22.449Z,23.87
2023-04-09T17:01:26.532Z,22.47
2023-04-09T17:04:31.752Z,26.87
2023-04-09T17:07:35.591Z,24.03
2023-04-09T17:10:40.634Z,26.70
2023-04-09T17:13:44.989Z,23.23
2023-04-09T17:16:48.714Z,27.13
2023-04-09T17:19:53.474Z,24.70
2023-04-09T17:22:57.575Z,24.40
2023-04-09T17:26:03.446Z,22.60
2023-04-09T17:29:07.197Z,23.33
2023-04-09T17:32:11.012Z,27.03
2023-04-09T17:35:14.627Z,27.73
2023-04-09T17:38:21.576Z,25.83
2023-04-09T17:41:27.802Z,27.00
2023-04-09T17:44:35.302Z,25.53
2023-04-09T17:47:39.834Z,27.60
2023-04-09T17:50:43.531Z,33.70
2023-04-09T17:53:47.569Z,28.17
2023-04-09T17:56:53.250Z,27.73
2023-04-09T17:59:56.767Z,28.27
2023-04-09T18:03:00.854Z,30.77
2023-04-09T18:06:04.863Z,32.53
2023-04-09T18:09:08.612Z,36.83
2023-04-09T18:12:13.644Z,39.93
2023-04-09T18:15:18.772Z,33.17
2023-04-09T18:18:22.418Z,36.23
2023-04-09T18:21:27.128Z,35.63
2023-04-09T18:24:30.882Z,36.67
2023-04-09T18:27:36.009Z,43.50
2023-04-09T18:30:39.846Z,43.63
2023-04-09T18:33:43.598Z,40.73
2023-04-09T18:36:47.387Z,37.53
2023-04-09T18:39:50.952Z,39.80
2023-04-09T18:42:56.856Z,38.97
2023-04-09T18:46:00.438Z,38.70
2023-04-09T18:49:04.036Z,39.67
2023-04-09T18:52:09.200Z,40.57
2023-04-09T18:55:13.764Z,41.43
2023-04-09T18:58:18.598Z,46.60
2023-04-09T19:01:23.131Z,53.97
2023-04-09T19:04:28.298Z,67.47
2023-04-09T19:07:32.070Z,68.13
2023-04-09T19:10:36.120Z,57.47
2023-04-09T19:13:41.669Z,45.63
2023-04-09T19:16:45.379Z,43.33
2023-04-09T19:19:49.087Z,39.93
2023-04-09T19:22:54.590Z,41.87
2023-04-09T19:25:58.136Z,40.47
2023-04-09T19:29:03.759Z,38.17
2023-04-09T19:32:09.296Z,42.90
2023-04-09T19:35:12.985Z,42.33
2023-04-09T19:38:17.114Z,51.07
2023-04-09T19:41:20.753Z,45.87
2023-04-09T19:44:25.827Z,44.37
2023-04-09T19:47:29.668Z,41.40
2023-04-09T19:50:37.858Z,43.03
2023-04-09T19:53:43.518Z,52.47
2023-04-09T19:56:47.761Z,50.77
2023-04-09T19:59:52.643Z,48.13
2023-04-09T20:02:57.157Z,49.80
2023-04-09T20:06:00.997Z,48.40
2023-04-09T20:09:04.669Z,50.07
2023-04-09T20:12:09.592Z,50.97
2023-04-09T20:15:15.014Z,51.03
2023-04-09T20:18:18.510Z,46.33
2023-04-09T20:21:22.086Z,59.23
2023-04-09T20:24:27.003Z,50.77
2023-04-09T20:27:31.417Z,47.53
2023-04-09T20:30:36.906Z,45.93
2023-04-09T20:33:40.792Z,47.20
2023-04-09T20:36:44.407Z,49.87
2023-04-09T20:39:47.926Z,44.23
2023-04-09T20:42:52.561Z,44.87
2023-04-09T20:45:57.901Z,42.13
2023-04-09T20:49:01.645Z,42.13
2023-04-09T20:52:05.982Z,43.80
2023-04-09T20:55:10.968Z,38.53
2023-04-09T20:58:14.918Z,42.97
2023-04-09T21:01:20.147Z,42.33
2023-04-09T21:04:24.747Z,43.37
2023-04-09T21:07:28.410Z,39.83
2023-04-09T21:10:32.012Z,41.20
2023-04-09T21:13:50.442Z,38.63
2023-04-09T21:16:59.337Z,46.43
2023-04-09T21:20:02.927Z,42.57
2023-04-09T21:23:07.445Z,44.70
2023-04-09T21:26:11.832Z,42.40
2023-04-09T21:29:15.763Z,43.40
2023-04-09T21:32:20.859Z,40.83
2023-04-09T21:35:24.470Z,43.90
2023-04-09T21:38:27.967Z,46.60
2023-04-09T21:41:31.521Z,51.50
2023-04-09T21:44:35.268Z,48.77
2023-04-09T21:47:40.694Z,55.63
2023-04-09T21:50:44.250Z,48.60
2023-04-09T21:53:48.224Z,47.13
2023-04-09T21:56:51.726Z,47.80
2023-04-09T21:59:55.352Z,44.73
2023-04-09T22:03:01.825Z,47.93
2023-04-09T22:06:06.241Z,45.57
2023-04-09T22:09:09.689Z,47.93
2023-04-09T22:12:13.206Z,48.03
2023-04-09T22:15:17.813Z,49.73
2023-04-09T22:18:22.662Z,48.90
2023-04-09T22:21:26.561Z,46.63
2023-04-09T22:24:33.914Z,50.00
2023-04-09T22:27:37.875Z,46.80
2023-04-09T22:30:41.328Z,52.57
2023-04-09T22:33:46.218Z,50.60
2023-04-09T22:36:49.980Z,52.50
2023-04-09T22:39:53.461Z,53.73
2023-04-09T22:42:57.201Z,57.57
2023-04-09T22:46:09.494Z,58.60
2023-04-09T22:49:14.513Z,68.67
2023-04-09T22:52:18.098Z,58.67
2023-04-09T22:55:21.857Z,62.53
2023-04-09T22:58:25.365Z,61.90
2023-04-09T23:01:29.488Z,59.77
2023-04-09T23:04:35.019Z,59.00
2023-04-09T23:07:38.641Z,55.70
2023-04-09T23:10:42.182Z,52.53
2023-04-09T23:13:45.792Z,51.00
2023-04-09T23:16:49.386Z,50.57
2023-04-09T23:19:54.424Z,52.00
2023-04-09T23:22:57.993Z,50.57
2023-04-09T23:26:01.938Z,50.97
2023-04-09T23:29:05.441Z,48.47
2023-04-09T23:32:08.931Z,43.90
2023-04-09T23:35:13.950Z,41.20
2023-04-09T23:38:17.637Z,36.20
2023-04-09T23:41:21.333Z,40.00
2023-04-09T23:44:24.960Z,34.10
2023-04-09T23:47:28.497Z,34.37
2023-04-09T23:50:33.524Z,34.83
2023-04-09T23:53:37.042Z,36.03
2023-04-09T23:56:40.545Z,29.97
2023-04-09T23:59:44.043Z,33.77
